createdAt,value
2022-12-03T00:01:18.885Z,87.00
2022-12-03T00:04:00.862Z,93.20
2022-12-03T00:06:34.700Z,91.60
2022-12-03T00:09:07.332Z,89.00
2022-12-03T00:11:39.417Z,83.00
2022-12-03T00:14:11.361Z,86.70
2022-12-03T00:16:43.262Z,89.80
2022-12-03T00:19:15.166Z,86.40
2022-12-03T00:21:47.590Z,89.00
2022-12-03T00:24:19.407Z,92.50
2022-12-03T00:26:51.314Z,88.10
2022-12-03T00:29:23.137Z,93.70
2022-12-03T00:31:54.912Z,98.60
2022-12-03T00:34:26.751Z,98.40
2022-12-03T00:36:58.677Z,81.50
2022-12-03T00:39:30.489Z,87.00
2022-12-03T00:42:02.531Z,97.80
2022-12-03T00:44:34.436Z,87.60
2022-12-03T00:47:06.468Z,89.80
2022-12-03T00:49:38.571Z,88.30
2022-12-03T00:52:10.583Z,99.90
2022-12-03T00:54:42.438Z,93.30
2022-12-03T00:57:14.320Z,94.20
2022-12-03T00:59:46.241Z,85.60
2022-12-03T01:02:18.193Z,90.50
2022-12-03T01:04:50.279Z,94.70
2022-12-03T01:07:22.266Z,90.20
2022-12-03T01:09:54.053Z,96.50
2022-12-03T01:12:26.237Z,96.30
2022-12-03T01:14:58.333Z,90.20
2022-12-03T01:17:30.290Z,89.30
2022-12-03T01:20:02.382Z,89.00
2022-12-03T01:22:34.251Z,95.70
2022-12-03T01:25:06.572Z,101.40
2022-12-03T01:27:38.364Z,102.70
2022-12-03T01:30:15.489Z,105.50
2022-12-03T01:32:47.483Z,113.10
2022-12-03T01:35:19.454Z,108.60
2022-12-03T01:37:51.303Z,115.30
2022-12-03T01:40:24.111Z,110.00
2022-12-03T01:42:56.073Z,110.60
2022-12-03T01:45:28.295Z,103.00
2022-12-03T01:48:00.889Z,94.80
2022-12-03T01:50:34.996Z,104.80
2022-12-03T01:53:07.037Z,99.00
2022-12-03T01:55:39.642Z,102.20
2022-12-03T01:58:16.556Z,102.00
2022-12-03T02:00:48.525Z,99.10
2022-12-03T02:03:23.604Z,93.70
2022-12-03T02:05:57.488Z,107.00
2022-12-03T02:08:34.717Z,100.80
2022-12-03T02:11:13.260Z,100.10
2022-12-03T02:13:46.078Z,98.00
2022-12-03T02:16:18.046Z,88.50
2022-12-03T02:18:50.228Z,94.20
2022-12-03T02:21:29.092Z,90.00
2022-12-03T02:24:11.698Z,92.30
2022-12-03T02:26:43.586Z,99.60
2022-12-03T02:29:15.619Z,109.20
2022-12-03T02:31:47.626Z,98.70
2022-12-03T02:34:36.828Z,103.00
2022-12-03T02:37:12.694Z,91.30
2022-12-03T02:39:48.841Z,104.70
2022-12-03T02:42:37.900Z,105.70
2022-12-03T02:45:16.345Z,105.20
2022-12-03T02:47:50.905Z,123.50
2022-12-03T02:50:30.521Z,101.60
2022-12-03T02:53:06.440Z,116.80
2022-12-03T02:55:38.842Z,107.90
2022-12-03T02:58:12.122Z,106.90
2022-12-03T03:00:45.165Z,121.60
2022-12-03T03:03:18.591Z,113.20
2022-12-03T03:05:51.580Z,108.10
2022-12-03T03:08:24.502Z,94.70
2022-12-03T03:10:57.323Z,117.20
2022-12-03T03:13:30.980Z,104.40
2022-12-03T03:16:05.229Z,121.10
2022-12-03T03:18:37.515Z,109.00
2022-12-03T03:21:09.963Z,104.70
2022-12-03T03:23:41.773Z,109.50
2022-12-03T03:26:16.297Z,107.70
2022-12-03T03:28:51.197Z,108.60
2022-12-03T03:31:24.958Z,108.80
2022-12-03T03:33:57.178Z,102.90
2022-12-03T03:36:29.054Z,105.50
2022-12-03T03:39:00.915Z,106.20
2022-12-03T03:41:33.910Z,102.10
2022-12-03T03:44:07.624Z,117.60
2022-12-03T03:46:40.837Z,108.70
2022-12-03T03:49:13.589Z,106.70
2022-12-03T03:51:46.061Z,107.00
2022-12-03T03:54:18.762Z,111.80
2022-12-03T03:56:50.918Z,107.70
2022-12-03T03:59:22.811Z,89.40
2022-12-03T04:01:54.753Z,97.20
2022-12-03T04:04:28.950Z,96.20
2022-12-03T04:07:01.138Z,103.80
2022-12-03T04:09:33.001Z,105.30
2022-12-03T04:12:22.354Z,105.10
2022-12-03T04:14:54.836Z,102.70
2022-12-03T04:17:27.269Z,103.80
2022-12-03T04:19:59.071Z,116.30
2022-12-03T04:22:42.790Z,106.00
2022-12-03T04:25:31.467Z,102.60
2022-12-03T04:28:22.958Z,111.30
2022-12-03T04:30:54.805Z,104.90
2022-12-03T04:33:44.562Z,99.10
2022-12-03T04:36:16.422Z,107.30
2022-12-03T04:38:48.436Z,109.90
2022-12-03T04:41:20.250Z,89.50
2022-12-03T04:44:09.295Z,111.00
2022-12-03T04:46:41.242Z,117.00
2022-12-03T04:49:13.185Z,105.70
2022-12-03T04:51:45.016Z,100.90
2022-12-03T04:54:16.940Z,96.60
2022-12-03T04:56:48.787Z,101.70
2022-12-03T04:59:20.968Z,108.80
2022-12-03T05:01:52.906Z,107.90
2022-12-03T05:04:24.903Z,115.70
2022-12-03T05:06:57.245Z,86.80
2022-12-03T05:09:29.152Z,106.60
2022-12-03T05:12:00.945Z,120.60
2022-12-03T05:14:32.815Z,106.90
2022-12-03T05:17:04.751Z,101.60
2022-12-03T05:19:54.724Z,105.40
2022-12-03T05:22:26.503Z,104.10
2022-12-03T05:24:58.377Z,103.20
2022-12-03T05:27:32.883Z,119.40
2022-12-03T05:30:04.899Z,113.80
2022-12-03T05:32:36.758Z,107.80
2022-12-03T05:35:12.520Z,104.40
2022-12-03T05:37:45.004Z,95.10
2022-12-03T05:40:25.297Z,117.40
2022-12-03T05:42:58.171Z,99.80
2022-12-03T05:45:31.811Z,105.70
2022-12-03T05:48:04.552Z,109.50
2022-12-03T05:50:38.990Z,113.80
2022-12-03T05:53:11.258Z,105.20
2022-12-03T05:55:43.274Z,105.70
2022-12-03T05:58:15.091Z,103.20
2022-12-03T06:00:47.493Z,89.70
2022-12-03T06:03:19.529Z,102.80
2022-12-03T06:05:51.492Z,91.60
2022-12-03T06:08:23.411Z,91.40
2022-12-03T06:10:55.287Z,93.60
2022-12-03T06:13:27.225Z,98.40
2022-12-03T06:15:59.290Z,100.00
2022-12-03T06:18:31.273Z,96.50
2022-12-03T06:21:03.055Z,94.50
2022-12-03T06:23:34.917Z,98.60
2022-12-03T06:26:06.862Z,96.60
2022-12-03T06:28:38.717Z,88.40
2022-12-03T06:31:10.594Z,96.30
2022-12-03T06:33:42.547Z,98.80
2022-12-03T06:36:16.741Z,92.40
2022-12-03T06:38:51.759Z,92.10
2022-12-03T06:41:23.781Z,87.20
2022-12-03T06:43:55.581Z,86.90
2022-12-03T06:46:27.511Z,91.70
2022-12-03T06:48:59.385Z,94.00
2022-12-03T06:51:31.575Z,86.60
2022-12-03T06:54:03.854Z,93.90
2022-12-03T06:56:40.387Z,97.50
2022-12-03T06:59:16.769Z,90.90
2022-12-03T07:01:49.283Z,90.50
2022-12-03T07:04:21.117Z,92.90
2022-12-03T07:06:53.318Z,100.10
2022-12-03T07:09:25.150Z,100.80
2022-12-03T07:11:57.127Z,82.30
2022-12-03T07:14:29.014Z,84.70
2022-12-03T07:17:00.906Z,88.80
2022-12-03T07:19:33.258Z,83.80
2022-12-03T07:22:05.966Z,82.20
2022-12-03T07:24:37.930Z,71.90
2022-12-03T07:27:09.887Z,82.20
2022-12-03T07:29:41.718Z,81.50
2022-12-03T07:32:15.351Z,81.80
2022-12-03T07:34:47.251Z,82.40
2022-12-03T07:37:23.043Z,91.00
2022-12-03T07:39:55.392Z,77.40
2022-12-03T07:42:27.279Z,76.40
2022-12-03T07:44:59.099Z,80.30
2022-12-03T07:47:31.036Z,66.40
2022-12-03T07:50:02.849Z,62.90
2022-12-03T07:52:42.110Z,68.40
2022-12-03T07:55:14.508Z,76.10
2022-12-03T07:57:48.371Z,65.00
2022-12-03T08:00:26.544Z,83.60
2022-12-03T08:02:58.453Z,75.80
2022-12-03T08:05:30.750Z,65.10
2022-12-03T08:08:02.741Z,81.20
2022-12-03T08:10:34.679Z,77.40
2022-12-03T08:13:12.949Z,64.70
2022-12-03T08:15:45.375Z,75.00
2022-12-03T08:18:21.488Z,78.00
2022-12-03T08:20:54.253Z,70.60
2022-12-03T08:23:27.934Z,75.70
2022-12-03T08:26:02.240Z,78.50
2022-12-03T08:28:34.123Z,72.00
2022-12-03T08:31:18.256Z,70.80
2022-12-03T08:33:52.136Z,74.40
2022-12-03T08:36:36.526Z,74.20
2022-12-03T08:39:24.486Z,76.90
2022-12-03T08:42:16.877Z,71.30
2022-12-03T08:44:49.087Z,75.40
2022-12-03T08:50:29.678Z,68.80
2022-12-03T08:53:12.927Z,79.70
2022-12-03T08:55:53.139Z,77.00
2022-12-03T08:58:40.389Z,83.20
2022-12-03T09:07:27.410Z,79.30
2022-12-03T09:09:59.715Z,79.60
2022-12-03T09:12:31.909Z,73.80
2022-12-03T09:15:03.754Z,81.80
2022-12-03T09:17:36.894Z,85.00
2022-12-03T09:20:14.474Z,81.30
2022-12-03T09:22:46.455Z,73.20
2022-12-03T09:25:18.458Z,79.50
2022-12-03T09:27:50.405Z,82.20
2022-12-03T09:30:28.746Z,80.50
2022-12-03T09:33:00.760Z,80.10
2022-12-03T09:35:32.537Z,83.30
2022-12-03T09:38:04.366Z,90.00
2022-12-03T09:40:36.754Z,89.70
2022-12-03T09:43:08.690Z,85.90
2022-12-03T09:45:40.718Z,74.80
2022-12-03T09:48:14.221Z,82.30
2022-12-03T09:50:46.897Z,82.30
2022-12-03T09:53:20.902Z,71.30
2022-12-03T09:55:52.943Z,79.00
2022-12-03T09:58:24.958Z,79.80
2022-12-03T10:00:58.182Z,76.40
2022-12-03T10:03:33.145Z,71.90
2022-12-03T10:06:05.267Z,76.40
2022-12-03T10:08:37.200Z,70.30
2022-12-03T10:11:09.652Z,82.10
2022-12-03T10:13:41.838Z,76.10
2022-12-03T10:16:16.333Z,78.20
2022-12-03T10:18:51.366Z,73.90
2022-12-03T10:21:27.112Z,67.60
2022-12-03T10:24:26.616Z,78.60
2022-12-03T10:27:00.708Z,78.00
2022-12-03T10:33:18.829Z,86.00
2022-12-03T10:35:51.502Z,83.30
2022-12-03T10:38:24.562Z,78.40
2022-12-03T10:40:58.127Z,80.80
2022-12-03T10:43:30.186Z,80.90
2022-12-03T10:46:18.478Z,84.20
2022-12-03T10:49:11.179Z,76.00
2022-12-03T10:51:43.419Z,81.30
2022-12-03T10:54:22.067Z,76.00
2022-12-03T10:56:54.630Z,74.80
2022-12-03T10:59:29.505Z,76.40
2022-12-03T11:02:01.894Z,82.40
2022-12-03T11:04:37.806Z,85.50
2022-12-03T11:13:55.256Z,82.90
2022-12-03T11:17:07.249Z,78.00
2022-12-03T11:19:48.360Z,77.60
2022-12-03T11:22:47.534Z,89.20
2022-12-03T11:25:50.987Z,92.60
2022-12-03T11:28:54.524Z,89.40
2022-12-03T11:35:15.160Z,90.20
2022-12-03T11:38:27.168Z,85.70
2022-12-03T11:41:20.099Z,82.80
2022-12-03T11:44:29.390Z,94.50
2022-12-03T11:47:15.426Z,86.90
2022-12-03T11:49:51.155Z,87.50
2022-12-03T11:52:31.198Z,86.30
2022-12-03T11:55:16.068Z,81.80
2022-12-03T11:58:16.374Z,76.30
2022-12-03T12:00:56.380Z,79.40
2022-12-03T12:03:40.845Z,78.80
2022-12-03T12:06:17.885Z,89.20
2022-12-03T12:09:00.430Z,85.30
2022-12-03T12:11:35.865Z,87.90
2022-12-03T12:14:09.587Z,82.10
2022-12-03T12:16:56.089Z,92.90
2022-12-03T12:23:29.667Z,85.90
2022-12-03T12:26:09.772Z,97.40
2022-12-03T12:28:45.039Z,97.40
2022-12-03T12:31:16.966Z,100.50
2022-12-03T12:34:12.499Z,108.30
2022-12-03T12:36:44.675Z,103.80
2022-12-03T12:39:18.435Z,106.20
2022-12-03T12:41:52.998Z,110.30
2022-12-03T12:44:26.586Z,110.30
2022-12-03T12:47:03.970Z,105.80
2022-12-03T12:49:35.950Z,107.70
2022-12-03T12:55:05.504Z,98.90
2022-12-03T12:57:44.864Z,101.10
2022-12-03T13:00:29.528Z,102.40
2022-12-03T13:03:04.073Z,99.70
2022-12-03T13:08:54.673Z,93.70
2022-12-03T13:11:41.528Z,99.90
2022-12-03T13:17:55.815Z,105.10
2022-12-03T13:26:58.602Z,129.90
2022-12-03T13:29:30.856Z,122.90
2022-12-03T13:32:15.236Z,107.30
2022-12-03T13:34:47.849Z,117.10
2022-12-03T13:37:23.638Z,111.60
2022-12-03T13:39:58.471Z,109.50
2022-12-03T13:42:42.047Z,118.50
2022-12-03T13:45:34.784Z,129.60
2022-12-03T13:48:23.765Z,133.40
2022-12-03T13:50:56.422Z,136.90
2022-12-03T13:53:34.084Z,136.80
2022-12-03T13:56:30.101Z,137.70
2022-12-03T13:59:04.428Z,139.70
2022-12-03T14:04:59.803Z,128.60
2022-12-03T14:07:32.336Z,126.30
2022-12-03T14:10:04.402Z,127.10
2022-12-03T14:12:49.973Z,134.10
2022-12-03T14:15:26.334Z,147.70
2022-12-03T14:18:10.869Z,142.10
2022-12-03T14:21:01.591Z,135.90
2022-12-03T14:23:33.671Z,133.40
2022-12-03T14:26:17.736Z,127.80
2022-12-03T14:28:49.409Z,116.70
2022-12-03T14:31:21.122Z,144.80
2022-12-03T14:33:59.126Z,127.90
2022-12-03T14:36:30.878Z,144.20
2022-12-03T14:39:24.707Z,136.10
2022-12-03T14:42:15.081Z,139.70
2022-12-03T14:44:48.558Z,135.40
2022-12-03T14:47:31.965Z,130.70
2022-12-03T14:50:14.466Z,137.80
2022-12-03T14:52:58.167Z,141.20
2022-12-03T14:55:33.972Z,139.50
2022-12-03T14:58:26.949Z,135.20
2022-12-03T15:00:58.603Z,140.60
2022-12-03T15:03:31.877Z,131.40
2022-12-03T15:06:03.525Z,138.10
2022-12-03T15:08:46.718Z,146.10
2022-12-03T15:14:44.244Z,117.60
2022-12-03T15:24:03.563Z,144.40
2022-12-03T15:26:38.130Z,147.80
2022-12-03T15:29:23.296Z,143.70
2022-12-03T15:31:55.066Z,130.60
2022-12-03T15:35:01.971Z,128.90
2022-12-03T15:37:34.486Z,133.70
2022-12-03T15:40:11.330Z,142.20
2022-12-03T15:42:43.517Z,129.50
2022-12-03T15:45:15.761Z,150.70
2022-12-03T15:47:47.707Z,142.80
2022-12-03T15:50:19.748Z,133.20
2022-12-03T15:52:51.642Z,139.60
2022-12-03T15:55:23.572Z,163.50
2022-12-03T15:57:55.414Z,172.60
2022-12-03T16:00:27.944Z,150.00
2022-12-03T16:03:04.005Z,157.30
2022-12-03T16:05:38.208Z,142.30
2022-12-03T16:08:09.902Z,141.80
2022-12-03T16:10:46.196Z,142.50
2022-12-03T16:23:37.345Z,135.30
2022-12-03T16:26:12.200Z,133.30
2022-12-03T16:28:43.940Z,148.90
2022-12-03T16:31:20.727Z,143.00
2022-12-03T16:34:00.072Z,139.70
2022-12-03T16:36:39.489Z,142.40
2022-12-03T16:39:50.846Z,137.70
2022-12-03T16:42:45.069Z,136.80
2022-12-03T16:45:53.594Z,142.30
2022-12-03T16:48:25.687Z,144.00
2022-12-03T16:50:59.169Z,133.30
2022-12-03T16:53:41.710Z,144.90
2022-12-03T16:56:37.792Z,145.80
2022-12-03T16:59:09.831Z,155.00
2022-12-03T17:01:41.827Z,158.60
2022-12-03T17:04:14.035Z,147.80
2022-12-03T17:06:46.012Z,153.70
2022-12-03T17:09:17.927Z,158.10
2022-12-03T17:11:50.019Z,142.10
2022-12-03T17:14:22.287Z,143.80
2022-12-03T17:16:54.207Z,146.00
2022-12-03T17:19:25.982Z,139.90
2022-12-03T17:21:59.863Z,149.80
2022-12-03T17:24:31.783Z,153.80
2022-12-03T17:27:06.288Z,148.30
2022-12-03T17:29:38.207Z,157.00
2022-12-03T17:32:10.363Z,160.30
2022-12-03T17:34:42.460Z,160.70
2022-12-03T17:37:15.044Z,174.30
2022-12-03T17:39:47.025Z,173.50
2022-12-03T17:42:18.987Z,179.30
2022-12-03T17:44:50.606Z,183.90
2022-12-03T17:47:22.263Z,168.50
2022-12-03T17:49:54.081Z,179.40
2022-12-03T17:52:25.903Z,170.60
2022-12-03T17:55:18.037Z,165.60
2022-12-03T17:57:49.208Z,160.60
2022-12-03T18:00:30.208Z,167.40
2022-12-03T18:03:01.855Z,167.10
2022-12-03T18:05:33.556Z,144.90
2022-12-03T18:08:05.461Z,157.40
2022-12-03T18:10:38.764Z,162.70
2022-12-03T18:13:10.469Z,154.10
2022-12-03T18:15:42.113Z,150.60
2022-12-03T18:18:14.001Z,164.30
2022-12-03T18:20:45.675Z,165.50
2022-12-03T18:23:17.410Z,164.40
2022-12-03T18:25:49.146Z,158.50
2022-12-03T18:28:21.047Z,176.50
2022-12-03T18:30:53.109Z,163.70
2022-12-03T18:33:25.238Z,171.30
2022-12-03T18:35:59.109Z,171.70
2022-12-03T18:38:34.622Z,173.60
2022-12-03T18:41:06.416Z,164.20
2022-12-03T18:43:38.147Z,177.80
2022-12-03T18:46:51.295Z,173.60
2022-12-03T18:49:06.556Z,161.10
2022-12-03T18:51:43.351Z,176.90
2022-12-03T18:54:15.819Z,187.90
2022-12-03T18:56:47.466Z,174.90
2022-12-03T18:59:20.658Z,186.80
2022-12-03T19:01:52.374Z,181.50
2022-12-03T19:04:24.258Z,176.50
2022-12-03T19:06:55.986Z,176.70
2022-12-03T19:09:27.768Z,188.20
2022-12-03T19:11:59.425Z,182.50
2022-12-03T19:14:31.906Z,177.60
2022-12-03T19:17:03.964Z,172.90
2022-12-03T19:19:36.372Z,173.20
2022-12-03T19:22:07.992Z,178.70
2022-12-03T19:24:39.674Z,169.00
2022-12-03T19:27:11.417Z,180.40
2022-12-03T19:29:43.239Z,191.40
2022-12-03T19:32:14.949Z,177.80
2022-12-03T19:34:46.669Z,175.50
2022-12-03T19:37:18.346Z,160.50
2022-12-03T19:39:53.463Z,160.10
2022-12-03T19:42:25.704Z,150.50
2022-12-03T19:44:57.440Z,166.40
2022-12-03T19:47:29.159Z,164.80
2022-12-03T19:50:01.133Z,151.70
2022-12-03T19:52:35.279Z,163.20
2022-12-03T19:55:08.039Z,161.60
2022-12-03T19:57:42.242Z,155.60
2022-12-03T20:00:24.972Z,159.60
2022-12-03T20:02:56.823Z,160.10
2022-12-03T20:05:33.158Z,182.10
2022-12-03T20:08:06.488Z,167.60
2022-12-03T20:10:38.390Z,174.60
2022-12-03T20:13:10.128Z,174.30
2022-12-03T20:15:41.765Z,174.00
2022-12-03T20:18:13.418Z,183.70
2022-12-03T20:20:45.071Z,180.10
2022-12-03T20:23:17.002Z,175.70
2022-12-03T20:25:48.669Z,180.50
2022-12-03T20:28:20.529Z,190.30
2022-12-03T20:31:00.737Z,163.00
2022-12-03T20:33:32.723Z,181.10
2022-12-03T20:36:04.835Z,189.00
2022-12-03T20:38:37.257Z,177.80
2022-12-03T20:41:12.412Z,171.10
2022-12-03T20:43:44.288Z,157.40
2022-12-03T20:46:18.461Z,175.60
2022-12-03T20:48:54.127Z,178.60
2022-12-03T20:51:28.164Z,168.40
2022-12-03T20:54:00.911Z,167.90
2022-12-03T20:56:35.796Z,166.10
2022-12-03T20:59:09.468Z,173.50
2022-12-03T21:01:41.540Z,161.20
2022-12-03T21:04:16.191Z,168.90
2022-12-03T21:06:48.321Z,156.00
2022-12-03T21:09:20.084Z,175.00
2022-12-03T21:11:51.783Z,158.90
2022-12-03T21:14:24.967Z,169.10
2022-12-03T21:17:08.536Z,163.40
2022-12-03T21:19:41.193Z,179.10
2022-12-03T21:22:12.912Z,170.60
2022-12-03T21:24:44.686Z,154.70
2022-12-03T21:27:21.366Z,163.80
2022-12-03T21:29:55.382Z,168.00
2022-12-03T21:32:27.438Z,170.40
2022-12-03T21:34:59.083Z,171.10
2022-12-03T21:37:31.048Z,163.60
2022-12-03T21:40:02.911Z,161.90
2022-12-03T21:42:37.183Z,159.60
2022-12-03T21:45:10.477Z,169.70
2022-12-03T21:47:42.282Z,159.50
2022-12-03T21:50:15.963Z,157.90
2022-12-03T21:52:47.628Z,173.00
2022-12-03T21:55:19.491Z,160.80
2022-12-03T21:57:54.055Z,164.20
2022-12-03T22:00:27.558Z,169.30
2022-12-03T22:02:59.266Z,161.50
2022-12-03T22:05:31.036Z,157.00
2022-12-03T22:08:02.874Z,148.20
2022-12-03T22:10:34.657Z,166.90
2022-12-03T22:13:06.329Z,163.70
2022-12-03T22:15:40.560Z,164.00
2022-12-03T22:18:14.574Z,157.00
2022-12-03T22:20:46.381Z,157.10
2022-12-03T22:23:18.059Z,155.40
2022-12-03T22:25:57.865Z,151.20
2022-12-03T22:28:31.724Z,160.70
2022-12-03T22:31:05.910Z,147.60
2022-12-03T22:33:38.504Z,149.80
2022-12-03T22:36:19.916Z,164.80
2022-12-03T22:38:52.280Z,162.80
2022-12-03T22:41:23.966Z,149.10
2022-12-03T22:43:55.803Z,169.20
2022-12-03T22:46:28.121Z,158.50
2022-12-03T22:49:06.432Z,154.00
2022-12-03T22:51:38.626Z,154.80
2022-12-03T22:54:11.675Z,158.70
2022-12-03T22:56:43.732Z,154.70
2022-12-03T22:59:15.633Z,153.00
2022-12-03T23:01:47.480Z,158.30
2022-12-03T23:04:19.207Z,165.80
2022-12-03T23:06:54.038Z,153.30
2022-12-03T23:09:25.757Z,150.70
2022-12-03T23:11:57.474Z,147.00
2022-12-03T23:14:29.505Z,151.20
2022-12-03T23:17:01.135Z,152.00
2022-12-03T23:19:32.861Z,149.60
2022-12-03T23:22:04.563Z,154.70
2022-12-03T23:24:36.248Z,155.30
2022-12-03T23:27:08.099Z,153.20
2022-12-03T23:29:40.074Z,152.70
2022-12-03T23:32:11.702Z,137.80
2022-12-03T23:34:46.029Z,147.50
2022-12-03T23:37:17.701Z,144.10
2022-12-03T23:39:51.098Z,140.40
2022-12-03T23:42:22.981Z,145.30
2022-12-03T23:44:54.786Z,153.50
2022-12-03T23:47:26.374Z,131.10
2022-12-03T23:49:58.013Z,141.50
2022-12-03T23:52:32.403Z,133.70
2022-12-03T23:55:04.560Z,159.60
2022-12-03T23:57:36.490Z,149.90
